Terminal Aerodrome Forecast
Issued by NWS

Home | Current Version | Previous Version | Text Only | Print | Product List | Glossary On
Versions: 1 2 3 4 5 6 7 8 9 10 11 12 13 14 15 16 17 18 19 20 21 22 23 24 25 26
432
FTUS43 KDVN 180520
TAFBRL
TAF
KBRL 180520Z 1806/1906 31003KT P6SM SKC
     FM181600 22005KT P6SM FEW040
     FM182300 24006KT P6SM VCTS SCT050CB BKN250 PROB30 1900/1904 3SM
      TSRA BKN035CB OVC090
     FM190400 02006KT P6SM SKC=

USA.gov is the U.S. government's official web portal to all federal, state and local government web resources and services.